createdAt,value
2018-01-20T00:00:51.049Z,1002.7
2018-01-20T00:01:51.108Z,1002.71
2018-01-20T00:02:51.168Z,1002.74
2018-01-20T00:03:51.033Z,1002.76
2018-01-20T00:04:51.016Z,1002.8
2018-01-20T00:05:50.987Z,1002.8
2018-01-20T00:06:51.033Z,1002.8
2018-01-20T00:07:51.176Z,1002.77
2018-01-20T00:08:51.018Z,1002.77
2018-01-20T00:09:51.206Z,1002.73
2018-01-20T00:10:50.987Z,1002.78
2018-01-20T00:11:51.832Z,1002.73
2018-01-20T00:12:50.880Z,1002.75
2018-01-20T00:13:50.945Z,1002.76
2018-01-20T00:14:51.968Z,1002.72
2018-01-20T00:15:51.032Z,1002.74
2018-01-20T00:16:51.238Z,1002.68
2018-01-20T00:17:51.269Z,1002.69
2018-01-20T00:18:51.079Z,1002.67
2018-01-20T00:19:51.083Z,1002.66
2018-01-20T00:20:50.891Z,1002.67
2018-01-20T00:21:52.014Z,1002.62
2018-01-20T00:22:51.944Z,1002.65
2018-01-20T00:23:52.788Z,1002.6
2018-01-20T00:24:51.118Z,1002.57
2018-01-20T00:25:50.994Z,1002.58
2018-01-20T00:26:51.000Z,1002.57
2018-01-20T00:27:51.999Z,1002.61
2018-01-20T00:28:51.206Z,1002.59
2018-01-20T00:29:52.545Z,1002.59
2018-01-20T00:30:51.162Z,1002.59
2018-01-20T00:31:51.085Z,1002.56
2018-01-20T00:32:51.376Z,1002.58
2018-01-20T00:33:51.060Z,1002.58
2018-01-20T00:34:51.356Z,1002.52
2018-01-20T00:35:51.368Z,1002.52
2018-01-20T00:36:51.302Z,1002.54
2018-01-20T00:37:52.843Z,1002.53
2018-01-20T00:38:51.574Z,1002.56
2018-01-20T00:39:51.137Z,1002.6
2018-01-20T00:40:51.900Z,1002.56
2018-01-20T00:41:51.032Z,1002.56
2018-01-20T00:42:51.012Z,1002.59
2018-01-20T00:43:51.019Z,1002.55
2018-01-20T00:44:51.186Z,1002.59
2018-01-20T00:45:51.007Z,1002.58
2018-01-20T00:46:51.014Z,1002.56
2018-01-20T00:47:51.039Z,1002.6
2018-01-20T00:48:51.290Z,1002.59
2018-01-20T00:49:51.693Z,1002.57
2018-01-20T00:50:50.944Z,1002.56
2018-01-20T00:51:51.006Z,1002.58
2018-01-20T00:52:51.025Z,1002.59
2018-01-20T00:53:51.087Z,1002.52
2018-01-20T00:54:51.103Z,1002.54
2018-01-20T00:55:52.000Z,1002.54
2018-01-20T00:56:52.321Z,1002.53
2018-01-20T00:57:51.066Z,1002.55
2018-01-20T00:58:52.167Z,1002.56
2018-01-20T00:59:51.286Z,1002.54
2018-01-20T01:00:51.248Z,1002.55
2018-01-20T01:01:51.044Z,1002.56
2018-01-20T01:02:51.126Z,1002.55
2018-01-20T01:03:51.500Z,1002.48
2018-01-20T01:04:51.034Z,1002.49
2018-01-20T01:05:51.320Z,1002.48
2018-01-20T01:06:51.373Z,1002.48
2018-01-20T01:07:50.982Z,1002.46
2018-01-20T01:08:51.304Z,1002.51
2018-01-20T01:09:51.057Z,1002.5
2018-01-20T01:10:51.126Z,1002.5
2018-01-20T01:11:51.160Z,1002.55
2018-01-20T01:12:51.148Z,1002.52
2018-01-20T01:13:51.075Z,1002.48
2018-01-20T01:14:51.089Z,1002.47
2018-01-20T01:15:51.989Z,1002.51
2018-01-20T01:16:51.258Z,1002.49
2018-01-20T01:17:51.644Z,1002.48
2018-01-20T01:18:51.100Z,1002.49
2018-01-20T01:19:51.203Z,1002.46
2018-01-20T01:20:51.140Z,1002.43
2018-01-20T01:21:52.366Z,1002.49
2018-01-20T01:22:51.107Z,1002.43
2018-01-20T01:23:51.059Z,1002.42
2018-01-20T01:24:51.315Z,1002.42
2018-01-20T01:25:51.686Z,1002.42
2018-01-20T01:26:50.169Z,1002.45
2018-01-20T01:27:50.109Z,1002.44
2018-01-20T01:28:50.139Z,1002.43
2018-01-20T01:29:50.126Z,1002.4
2018-01-20T01:30:50.115Z,1002.4
2018-01-20T01:31:50.412Z,1002.41
2018-01-20T01:32:50.294Z,1002.43
2018-01-20T01:33:51.108Z,1002.4
2018-01-20T01:34:50.148Z,1002.35
2018-01-20T01:35:50.131Z,1002.37
2018-01-20T01:36:50.154Z,1002.36
2018-01-20T01:37:50.702Z,1002.31
2018-01-20T01:38:51.225Z,1002.33
2018-01-20T01:39:50.192Z,1002.32
2018-01-20T01:40:50.220Z,1002.32
2018-01-20T01:41:50.176Z,1002.27
2018-01-20T01:42:50.537Z,1002.21
2018-01-20T01:43:50.169Z,1002.22
2018-01-20T01:44:50.241Z,1002.22
2018-01-20T01:45:50.093Z,1002.22
2018-01-20T01:46:50.115Z,1002.15
2018-01-20T01:47:50.322Z,1002.14
2018-01-20T01:48:50.185Z,1002.14
2018-01-20T01:49:50.165Z,1002.11
2018-01-20T01:50:50.170Z,1002.16
2018-01-20T01:51:51.205Z,1002.14
2018-01-20T01:52:50.133Z,1002.14
2018-01-20T01:53:50.146Z,1002.12
2018-01-20T01:54:50.100Z,1002.12
2018-01-20T01:55:50.174Z,1002.14
2018-01-20T01:56:50.269Z,1002.12
2018-01-20T01:57:50.200Z,1002.16
2018-01-20T01:58:50.166Z,1002.1
2018-01-20T01:59:50.394Z,1002.14
2018-01-20T02:00:50.194Z,1002.19
2018-01-20T02:01:50.138Z,1002.16
2018-01-20T02:02:50.431Z,1002.22
2018-01-20T02:03:50.304Z,1002.19
2018-01-20T02:04:50.953Z,1002.18
2018-01-20T02:05:50.162Z,1002.18
2018-01-20T02:06:50.388Z,1002.17
2018-01-20T02:07:50.461Z,1002.11
2018-01-20T02:08:50.174Z,1002.09
2018-01-20T02:09:51.606Z,1002
2018-01-20T02:10:50.207Z,1001.96
2018-01-20T02:11:50.158Z,1001.95
2018-01-20T02:12:50.194Z,1001.96
2018-01-20T02:13:50.287Z,1001.97
2018-01-20T02:14:50.237Z,1002
2018-01-20T02:15:51.155Z,1001.97
2018-01-20T02:16:50.484Z,1001.98
2018-01-20T02:17:50.187Z,1001.97
2018-01-20T02:18:50.190Z,1002.03
2018-01-20T02:19:50.429Z,1001.97
2018-01-20T02:20:50.535Z,1001.96
2018-01-20T02:21:50.188Z,1002.02
2018-01-20T02:22:50.641Z,1002.08
2018-01-20T02:23:50.745Z,1002.06
2018-01-20T02:24:50.153Z,1002.09
2018-01-20T02:25:50.305Z,1002.14
2018-01-20T02:26:51.059Z,1002.14
2018-01-20T02:27:50.230Z,1002.13
2018-01-20T02:28:50.213Z,1002.1
2018-01-20T02:29:50.245Z,1002.08
2018-01-20T02:30:50.766Z,1002.08
2018-01-20T02:31:50.177Z,1002.04
2018-01-20T02:32:51.198Z,1002.03
2018-01-20T02:33:50.247Z,1001.97
2018-01-20T02:34:50.330Z,1001.93
2018-01-20T02:35:50.183Z,1001.95
2018-01-20T02:36:50.587Z,1001.93
2018-01-20T02:37:50.529Z,1001.95
2018-01-20T02:38:51.249Z,1001.89
2018-01-20T02:39:50.233Z,1001.89
2018-01-20T02:40:50.236Z,1001.93
2018-01-20T02:41:50.521Z,1001.92
2018-01-20T02:42:50.683Z,1001.92
2018-01-20T02:43:50.266Z,1001.94
2018-01-20T02:44:50.894Z,1001.94
2018-01-20T02:45:50.217Z,1001.93
2018-01-20T02:46:50.328Z,1001.97
2018-01-20T02:47:50.176Z,1001.88
2018-01-20T02:48:50.323Z,1001.88
2018-01-20T02:49:50.249Z,1001.88
2018-01-20T02:50:51.075Z,1001.96
2018-01-20T02:51:50.260Z,1001.97
2018-01-20T02:52:50.225Z,1001.95
2018-01-20T02:53:50.501Z,1001.97
2018-01-20T02:54:51.152Z,1001.98
2018-01-20T02:55:51.265Z,1001.98
2018-01-20T02:56:50.256Z,1001.96
2018-01-20T02:57:50.451Z,1001.98
2018-01-20T02:58:51.949Z,1001.97
2018-01-20T02:59:50.264Z,1001.98
2018-01-20T03:00:50.963Z,1002.06
2018-01-20T03:01:50.488Z,1002.06
2018-01-20T03:02:50.374Z,1002.02
2018-01-20T03:03:50.270Z,1001.99
2018-01-20T03:04:50.516Z,1002.04
2018-01-20T03:05:50.416Z,1002.02
2018-01-20T03:06:50.287Z,1002
2018-01-20T03:07:50.266Z,1001.96
2018-01-20T03:08:50.483Z,1002.05
2018-01-20T03:09:50.843Z,1001.99
2018-01-20T03:10:50.248Z,1001.96
2018-01-20T03:11:50.581Z,1001.98
2018-01-20T03:12:50.455Z,1001.96
2018-01-20T03:13:50.374Z,1001.92
2018-01-20T03:14:50.341Z,1001.91
2018-01-20T03:15:51.593Z,1001.88
2018-01-20T03:16:50.947Z,1001.89
2018-01-20T03:17:50.221Z,1001.89
2018-01-20T03:18:50.254Z,1001.9
2018-01-20T03:19:50.514Z,1001.92
2018-01-20T03:20:50.241Z,1001.9
2018-01-20T03:21:50.890Z,1001.9
2018-01-20T03:22:50.278Z,1001.9
2018-01-20T03:23:50.222Z,1001.88
2018-01-20T03:24:51.221Z,1001.93
2018-01-20T03:25:50.349Z,1001.9
2018-01-20T03:26:50.253Z,1001.94
2018-01-20T03:27:50.347Z,1001.94
2018-01-20T03:28:50.570Z,1001.89
2018-01-20T03:29:50.631Z,1001.88
2018-01-20T03:30:50.324Z,1001.92
2018-01-20T03:31:50.308Z,1001.85
2018-01-20T03:32:50.290Z,1001.84
2018-01-20T03:33:50.974Z,1001.83
2018-01-20T03:34:52.359Z,1001.89
2018-01-20T03:35:51.386Z,1001.85
2018-01-20T03:36:50.347Z,1001.89
2018-01-20T03:37:50.453Z,1001.82
2018-01-20T03:38:51.398Z,1001.87
2018-01-20T03:39:50.399Z,1001.92
2018-01-20T03:40:50.928Z,1001.9
2018-01-20T03:41:50.343Z,1001.88
2018-01-20T03:42:50.363Z,1001.81
2018-01-20T03:43:50.556Z,1001.86
2018-01-20T03:44:50.426Z,1001.82
2018-01-20T03:45:50.583Z,1001.83
2018-01-20T03:46:50.272Z,1001.83
2018-01-20T03:47:50.322Z,1001.81
2018-01-20T03:48:50.366Z,1001.82
2018-01-20T03:49:51.210Z,1001.79
2018-01-20T03:50:50.334Z,1001.82
2018-01-20T03:51:50.357Z,1001.76
2018-01-20T03:52:51.138Z,1001.79
2018-01-20T03:53:51.062Z,1001.82
2018-01-20T03:54:50.597Z,1001.8
2018-01-20T03:55:50.473Z,1001.74
2018-01-20T03:56:50.339Z,1001.78
2018-01-20T03:57:50.570Z,1001.77
2018-01-20T03:58:51.156Z,1001.76
2018-01-20T03:59:50.420Z,1001.75
2018-01-20T04:00:50.412Z,1001.79
2018-01-20T04:01:50.622Z,1001.79
2018-01-20T04:02:50.454Z,1001.77
2018-01-20T04:03:50.327Z,1001.78
2018-01-20T04:04:50.515Z,1001.76
2018-01-20T04:05:50.413Z,1001.75
2018-01-20T04:06:50.345Z,1001.79
2018-01-20T04:07:50.549Z,1001.73
2018-01-20T04:08:50.301Z,1001.72
2018-01-20T04:09:50.344Z,1001.72
2018-01-20T04:10:50.352Z,1001.73
2018-01-20T04:11:50.526Z,1001.65
2018-01-20T04:12:50.392Z,1001.69
2018-01-20T04:13:50.588Z,1001.69
2018-01-20T04:14:50.507Z,1001.66
2018-01-20T04:15:50.554Z,1001.69
2018-01-20T04:16:50.332Z,1001.68
2018-01-20T04:17:50.311Z,1001.65
2018-01-20T04:18:50.314Z,1001.69
2018-01-20T04:19:50.344Z,1001.61
2018-01-20T04:20:50.666Z,1001.68
2018-01-20T04:21:50.367Z,1001.61
2018-01-20T04:22:51.268Z,1001.67
2018-01-20T04:23:50.544Z,1001.64
2018-01-20T04:24:50.297Z,1001.63
2018-01-20T04:25:50.511Z,1001.65
2018-01-20T04:26:50.502Z,1001.59
2018-01-20T04:27:51.457Z,1001.59
2018-01-20T04:28:50.572Z,1001.58
2018-01-20T04:29:50.373Z,1001.53
2018-01-20T04:30:50.789Z,1001.55
2018-01-20T04:31:51.067Z,1001.5
2018-01-20T04:32:50.377Z,1001.49
2018-01-20T04:33:51.444Z,1001.45
2018-01-20T04:34:50.456Z,1001.48
2018-01-20T04:35:50.464Z,1001.48
2018-01-20T04:36:51.288Z,1001.45
2018-01-20T04:37:50.410Z,1001.41
2018-01-20T04:38:50.498Z,1001.43
2018-01-20T04:39:50.373Z,1001.42
2018-01-20T04:40:50.482Z,1001.41
2018-01-20T04:41:50.568Z,1001.34
2018-01-20T04:42:51.613Z,1001.42
2018-01-20T04:43:52.104Z,1001.35
2018-01-20T04:44:50.616Z,1001.36
2018-01-20T04:45:50.543Z,1001.39
2018-01-20T04:46:50.362Z,1001.37
2018-01-20T04:47:50.627Z,1001.37
2018-01-20T04:48:50.660Z,1001.41
2018-01-20T04:49:50.386Z,1001.36
2018-01-20T04:50:50.463Z,1001.36
2018-01-20T04:51:50.364Z,1001.39
2018-01-20T04:52:50.377Z,1001.39
2018-01-20T04:53:50.535Z,1001.41
2018-01-20T04:54:50.376Z,1001.38
2018-01-20T04:55:51.341Z,1001.37
2018-01-20T04:56:50.656Z,1001.37
2018-01-20T04:57:50.596Z,1001.34
2018-01-20T04:58:50.493Z,1001.29
2018-01-20T04:59:50.653Z,1001.34
2018-01-20T05:00:50.564Z,1001.33
2018-01-20T05:01:50.477Z,1001.3
2018-01-20T05:02:50.754Z,1001.31
2018-01-20T05:03:51.584Z,1001.27
2018-01-20T05:04:50.659Z,1001.28
2018-01-20T05:05:50.381Z,1001.25
2018-01-20T05:06:50.694Z,1001.25
2018-01-20T05:07:50.368Z,1001.24
2018-01-20T05:08:50.408Z,1001.21
2018-01-20T05:09:50.835Z,1001.23
2018-01-20T05:10:51.567Z,1001.19
2018-01-20T05:11:50.524Z,1001.2
2018-01-20T05:12:50.551Z,1001.19
2018-01-20T05:13:51.175Z,1001.16
2018-01-20T05:14:50.373Z,1001.18
2018-01-20T05:15:51.345Z,1001.17
2018-01-20T05:16:50.558Z,1001.18
2018-01-20T05:17:50.496Z,1001.16
2018-01-20T05:18:51.290Z,1001.15
2018-01-20T05:19:50.414Z,1001.12
2018-01-20T05:20:50.453Z,1001.12
2018-01-20T05:21:50.873Z,1001.14
2018-01-20T05:22:51.299Z,1001.1
2018-01-20T05:23:50.458Z,1001.16
2018-01-20T05:24:51.027Z,1001.13
2018-01-20T05:25:50.757Z,1001.19
2018-01-20T05:26:50.843Z,1001.13
2018-01-20T05:27:50.574Z,1001.15
2018-01-20T05:28:50.554Z,1001.16
2018-01-20T05:29:50.459Z,1001.21
2018-01-20T05:30:50.523Z,1001.2
2018-01-20T05:31:51.495Z,1001.15
2018-01-20T05:32:50.526Z,1001.2
2018-01-20T05:33:51.529Z,1001.16
2018-01-20T05:34:50.873Z,1001.16
2018-01-20T05:35:50.463Z,1001.21
2018-01-20T05:36:50.581Z,1001.21
2018-01-20T05:37:50.576Z,1001.23
2018-01-20T05:38:50.700Z,1001.21
2018-01-20T05:39:50.427Z,1001.22
2018-01-20T05:40:50.493Z,1001.22
2018-01-20T05:41:50.717Z,1001.19
2018-01-20T05:42:50.699Z,1001.14
2018-01-20T05:43:50.507Z,1001.17
2018-01-20T05:44:50.531Z,1001.14
2018-01-20T05:45:50.533Z,1001.11
2018-01-20T05:46:50.484Z,1001.13
2018-01-20T05:47:51.325Z,1001.11
2018-01-20T05:48:50.838Z,1001.13
2018-01-20T05:49:50.509Z,1001.07
2018-01-20T05:50:51.233Z,1001.08
2018-01-20T05:51:50.783Z,1001.09
2018-01-20T05:52:50.542Z,1001.06
2018-01-20T05:53:50.755Z,1001.07
2018-01-20T05:54:50.615Z,1001.12
2018-01-20T05:55:50.570Z,1001.06
2018-01-20T05:56:50.564Z,1001.02
2018-01-20T05:57:52.008Z,1001.05
2018-01-20T05:58:50.599Z,1001.07
2018-01-20T05:59:50.575Z,1001.08
2018-01-20T06:00:50.562Z,1001.08
2018-01-20T06:01:50.535Z,1001.05
2018-01-20T06:02:50.520Z,1001.03
2018-01-20T06:03:50.550Z,1001.05
2018-01-20T06:04:50.568Z,1001.05
2018-01-20T06:05:50.529Z,1001.08
2018-01-20T06:06:50.511Z,1001.05
2018-01-20T06:07:50.656Z,1001.05
2018-01-20T06:08:50.466Z,1001.06
2018-01-20T06:09:51.862Z,1001.06
2018-01-20T06:10:50.797Z,1001.06
2018-01-20T06:11:50.546Z,1001.04
2018-01-20T06:12:50.608Z,1001.06
2018-01-20T06:13:50.466Z,1001.07
2018-01-20T06:14:50.680Z,1001.07
2018-01-20T06:15:50.475Z,1001.01
2018-01-20T06:16:50.539Z,1001.02
2018-01-20T06:17:50.681Z,1001.02
2018-01-20T06:18:50.664Z,1001.03
2018-01-20T06:19:52.395Z,1001.01
2018-01-20T06:20:51.923Z,1001.01
2018-01-20T06:21:52.188Z,1000.98
2018-01-20T06:22:50.520Z,1000.93
2018-01-20T06:23:50.637Z,1000.9
2018-01-20T06:24:51.268Z,1000.9
2018-01-20T06:25:50.759Z,1000.89
2018-01-20T06:26:50.760Z,1000.85
2018-01-20T06:27:51.325Z,1000.91
2018-01-20T06:28:50.559Z,1000.9
2018-01-20T06:29:51.454Z,1000.91
2018-01-20T06:30:50.696Z,1000.93
2018-01-20T06:31:50.614Z,1000.99
2018-01-20T06:32:50.575Z,1000.91
2018-01-20T06:33:50.607Z,1000.9
2018-01-20T06:34:50.617Z,1000.87
2018-01-20T06:35:51.427Z,1000.86
2018-01-20T06:36:50.544Z,1000.85
2018-01-20T06:37:50.820Z,1000.86
2018-01-20T06:38:51.304Z,1000.88
2018-01-20T06:39:50.658Z,1000.87
2018-01-20T06:40:50.614Z,1000.89
2018-01-20T06:41:50.622Z,1000.88
2018-01-20T06:42:50.700Z,1000.88
2018-01-20T06:43:50.887Z,1000.85
2018-01-20T06:44:50.575Z,1000.89
2018-01-20T06:45:51.737Z,1000.88
2018-01-20T06:46:50.592Z,1000.86
2018-01-20T06:47:51.530Z,1000.84
2018-01-20T06:48:50.553Z,1000.89
2018-01-20T06:49:50.656Z,1000.88
2018-01-20T06:50:50.618Z,1000.87
2018-01-20T06:51:50.638Z,1000.89
2018-01-20T06:52:51.582Z,1000.86
2018-01-20T06:53:50.646Z,1000.84
2018-01-20T06:54:50.615Z,1000.86
2018-01-20T06:55:50.850Z,1000.89
2018-01-20T06:56:51.583Z,1000.92
2018-01-20T06:57:50.657Z,1000.9
2018-01-20T06:58:50.980Z,1000.84
2018-01-20T06:59:51.431Z,1000.82
2018-01-20T07:00:50.629Z,1000.83
2018-01-20T07:01:50.645Z,1000.81
2018-01-20T07:02:51.396Z,1000.8
2018-01-20T07:03:50.636Z,1000.77
2018-01-20T07:04:50.900Z,1000.78
2018-01-20T07:05:50.649Z,1000.75
2018-01-20T07:06:51.647Z,1000.73
2018-01-20T07:07:51.008Z,1000.78
2018-01-20T07:08:50.781Z,1000.74
2018-01-20T07:09:50.570Z,1000.7
2018-01-20T07:10:50.638Z,1000.72
2018-01-20T07:11:50.621Z,1000.72
2018-01-20T07:12:50.711Z,1000.73
2018-01-20T07:13:50.763Z,1000.79
2018-01-20T07:14:37.456Z,1000.76
2018-01-20T07:15:36.599Z,1000.75
2018-01-20T07:17:22.081Z,1000.78
2018-01-20T07:18:21.931Z,1000.74
2018-01-20T07:19:21.812Z,1000.73
2018-01-20T07:20:23.342Z,1000.74
2018-01-20T07:21:08.913Z,1000.75
2018-01-20T07:22:09.784Z,1000.76
2018-01-20T07:23:08.757Z,1000.72
2018-01-20T07:24:08.785Z,1000.71
2018-01-20T07:25:08.740Z,1000.69
2018-01-20T07:26:11.048Z,1000.69
2018-01-20T07:27:08.835Z,1000.65
2018-01-20T07:28:08.747Z,1000.61
2018-01-20T07:29:08.898Z,1000.6
2018-01-20T07:30:08.759Z,1000.64
2018-01-20T07:31:08.841Z,1000.66
2018-01-20T07:32:09.524Z,1000.62
2018-01-20T07:33:08.770Z,1000.59
2018-01-20T07:34:08.797Z,1000.63
2018-01-20T07:35:09.193Z,1000.57
2018-01-20T07:36:09.019Z,1000.59
2018-01-20T07:37:09.893Z,1000.62
2018-01-20T07:38:08.688Z,1000.64
2018-01-20T07:39:08.802Z,1000.64
2018-01-20T07:40:08.835Z,1000.6
2018-01-20T07:41:09.081Z,1000.64
2018-01-20T07:42:09.204Z,1000.57
2018-01-20T07:43:09.262Z,1000.56
2018-01-20T07:44:09.241Z,1000.51
2018-01-20T07:45:09.358Z,1000.57
2018-01-20T07:46:09.175Z,1000.53
2018-01-20T07:47:09.177Z,1000.52
2018-01-20T07:48:09.163Z,1000.55
2018-01-20T07:49:09.557Z,1000.57
2018-01-20T07:50:09.086Z,1000.49
2018-01-20T07:51:09.027Z,1000.49
2018-01-20T07:52:08.998Z,1000.5
2018-01-20T07:53:29.181Z,1000.55
2018-01-20T07:54:08.993Z,1000.54
2018-01-20T07:55:09.832Z,1000.55
2018-01-20T07:56:09.392Z,1000.52
2018-01-20T07:57:09.125Z,1000.49
2018-01-20T07:58:28.951Z,1000.53
2018-01-20T07:59:20.362Z,1000.54
2018-01-20T08:00:20.348Z,1000.48
2018-01-20T08:01:20.168Z,1000.52
2018-01-20T08:02:20.115Z,1000.51
2018-01-20T08:03:20.101Z,1000.51
2018-01-20T08:04:20.027Z,1000.53
2018-01-20T08:05:20.246Z,1000.51
2018-01-20T08:06:20.089Z,1000.49
2018-01-20T08:07:20.054Z,1000.54
2018-01-20T08:08:20.650Z,1000.53
2018-01-20T08:09:20.670Z,1000.49
2018-01-20T08:10:20.251Z,1000.53
2018-01-20T08:11:20.074Z,1000.46
2018-01-20T08:12:20.647Z,1000.44
2018-01-20T08:13:20.056Z,1000.44
2018-01-20T08:14:20.161Z,1000.44
2018-01-20T08:15:20.091Z,1000.45
2018-01-20T08:16:19.984Z,1000.42
2018-01-20T08:17:20.265Z,1000.48
2018-01-20T08:18:19.975Z,1000.43
2018-01-20T08:19:20.272Z,1000.47
2018-01-20T08:20:20.128Z,1000.45
2018-01-20T08:21:21.029Z,1000.4
2018-01-20T08:23:08.697Z,1000.35
2018-01-20T08:24:07.363Z,1000.33
2018-01-20T08:25:06.669Z,1000.34
2018-01-20T08:26:06.597Z,1000.36
2018-01-20T08:27:06.795Z,1000.35
2018-01-20T08:28:06.817Z,1000.34
2018-01-20T08:29:07.608Z,1000.37
2018-01-20T08:30:07.428Z,1000.32
2018-01-20T08:31:06.753Z,1000.28
2018-01-20T08:32:07.369Z,1000.25
2018-01-20T08:33:06.524Z,1000.27
2018-01-20T08:34:06.785Z,1000.28
2018-01-20T08:35:06.586Z,1000.28
2018-01-20T08:36:07.514Z,1000.27
2018-01-20T08:37:08.268Z,1000.22
2018-01-20T08:38:07.010Z,1000.23
2018-01-20T08:39:07.250Z,1000.17
2018-01-20T08:40:07.369Z,1000.18
2018-01-20T08:43:10.105Z,1000.11
2018-01-20T08:44:06.689Z,1000.14
2018-01-20T08:45:06.592Z,1000.09
2018-01-20T08:46:06.970Z,1000.11
2018-01-20T08:47:06.839Z,1000.08
2018-01-20T08:48:07.493Z,999.95
2018-01-20T08:49:06.585Z,999.96
2018-01-20T08:50:06.571Z,999.95
2018-01-20T08:51:06.577Z,1000.03
2018-01-20T08:52:06.791Z,999.95
2018-01-20T08:53:07.124Z,999.97
2018-01-20T08:54:07.508Z,999.93
2018-01-20T08:55:07.398Z,999.93
2018-01-20T08:56:08.674Z,999.95
2018-01-20T08:57:06.154Z,999.95
2018-01-20T08:58:04.784Z,999.91
2018-01-20T08:59:05.051Z,999.91
2018-01-20T09:00:11.624Z,999.88
2018-01-20T09:01:06.177Z,999.88
2018-01-20T09:02:04.795Z,999.87
2018-01-20T09:03:04.611Z,999.86
2018-01-20T09:04:05.279Z,999.83
2018-01-20T09:05:05.795Z,999.76
2018-01-20T09:06:05.289Z,999.74
2018-01-20T09:07:05.626Z,999.78
2018-01-20T09:08:07.013Z,999.76
2018-01-20T09:09:06.501Z,999.74
2018-01-20T09:10:05.763Z,999.7
2018-01-20T09:11:05.857Z,999.68
2018-01-20T09:12:07.094Z,999.71
2018-01-20T09:13:06.472Z,999.66
2018-01-20T09:14:06.281Z,999.65
2018-01-20T09:15:06.484Z,999.65
2018-01-20T09:16:04.976Z,999.61
2018-01-20T09:17:07.566Z,999.55
2018-01-20T09:18:06.283Z,999.56
2018-01-20T09:19:07.089Z,999.51
2018-01-20T09:20:05.858Z,999.55
2018-01-20T09:21:05.710Z,999.51
2018-01-20T09:22:04.975Z,999.5
2018-01-20T09:23:06.123Z,999.48
2018-01-20T09:24:05.317Z,999.46
2018-01-20T09:25:04.958Z,999.46
2018-01-20T09:26:05.781Z,999.51
2018-01-20T09:27:07.673Z,999.47
2018-01-20T09:28:54.674Z,999.43
2018-01-20T09:28:59.688Z,999.45
2018-01-20T09:29:05.349Z,999.43
2018-01-20T09:29:11.308Z,999.44
2018-01-20T09:29:18.473Z,999.44
2018-01-20T09:29:24.410Z,999.42
2018-01-20T09:29:29.880Z,999.44
2018-01-20T09:29:35.226Z,999.45
2018-01-20T09:29:41.259Z,999.43
2018-01-20T09:29:48.288Z,999.36
2018-01-20T09:29:53.257Z,999.42
2018-01-20T09:29:58.298Z,999.38
2018-01-20T09:30:04.829Z,999.36
2018-01-20T09:30:11.008Z,999.36
2018-01-20T09:30:20.557Z,999.39
2018-01-20T09:30:27.452Z,999.39
2018-01-20T09:30:33.857Z,999.36
2018-01-20T09:30:45.161Z,999.4
2018-01-20T09:30:59.951Z,999.4
2018-01-20T09:31:18.075Z,999.39
2018-01-20T09:31:35.722Z,999.4
2018-01-20T09:31:48.068Z,999.39
2018-01-20T09:31:58.371Z,999.4
2018-01-20T09:32:09.068Z,999.36
2018-01-20T09:32:15.825Z,999.4
2018-01-20T09:32:22.686Z,999.43
2018-01-20T09:32:29.877Z,999.35
2018-01-20T09:32:34.654Z,999.39
2018-01-20T09:32:39.527Z,999.4
2018-01-20T09:32:46.209Z,999.42
2018-01-20T09:32:51.473Z,999.43
2018-01-20T09:32:57.750Z,999.41
2018-01-20T09:33:04.265Z,999.42
2018-01-20T09:33:09.373Z,999.36
2018-01-20T09:33:17.394Z,999.39
2018-01-20T09:33:22.467Z,999.41
2018-01-20T09:33:27.938Z,999.38
2018-01-20T09:33:33.527Z,999.36
2018-01-20T09:33:39.327Z,999.38
2018-01-20T09:33:45.280Z,999.39
2018-01-20T09:33:53.638Z,999.38
2018-01-20T09:34:00.029Z,999.39
2018-01-20T09:34:06.883Z,999.39
2018-01-20T09:34:12.689Z,999.35
2018-01-20T09:34:17.297Z,999.4
2018-01-20T09:34:22.644Z,999.35
2018-01-20T09:34:29.256Z,999.36
2018-01-20T09:34:35.125Z,999.36
2018-01-20T09:34:39.734Z,999.39
2018-01-20T09:34:48.065Z,999.39
2018-01-20T09:35:13.899Z,999.37
2018-01-20T09:35:20.433Z,999.37
2018-01-20T09:35:26.519Z,999.4
2018-01-20T09:35:31.915Z,999.39
2018-01-20T09:35:39.286Z,999.36
2018-01-20T09:35:47.652Z,999.38
2018-01-20T09:35:56.061Z,999.35
2018-01-20T09:36:03.099Z,999.39
2018-01-20T09:36:08.812Z,999.39
2018-01-20T09:37:05.348Z,999.41
2018-01-20T09:38:05.083Z,999.38
2018-01-20T09:39:07.728Z,999.33
2018-01-20T09:40:05.315Z,999.3
2018-01-20T09:41:05.125Z,999.35
2018-01-20T09:42:05.408Z,999.33
2018-01-20T09:43:05.098Z,999.38
2018-01-20T09:44:05.129Z,999.35
2018-01-20T09:45:05.081Z,999.35
2018-01-20T09:46:05.069Z,999.33
2018-01-20T09:47:05.241Z,999.28
2018-01-20T09:48:05.049Z,999.26
2018-01-20T09:49:05.139Z,999.26
2018-01-20T09:50:05.165Z,999.19
2018-01-20T09:51:05.136Z,999.18
2018-01-20T09:52:05.177Z,999.19
2018-01-20T09:53:05.078Z,999.19
2018-01-20T09:54:05.106Z,999.16
2018-01-20T09:55:05.268Z,999.08
2018-01-20T09:56:05.414Z,999.08
2018-01-20T09:57:05.474Z,999.09
2018-01-20T09:58:05.388Z,999.13
2018-01-20T09:59:05.262Z,999.07
2018-01-20T10:00:05.085Z,999.09
2018-01-20T10:01:05.102Z,999.12
2018-01-20T10:02:06.267Z,999.1
2018-01-20T10:03:05.376Z,999.15
2018-01-20T10:04:05.044Z,999.12
2018-01-20T10:05:09.902Z,999.14
2018-01-20T10:06:05.036Z,999.15
2018-01-20T10:07:05.205Z,999.08
2018-01-20T10:08:05.388Z,999.06
2018-01-20T10:09:04.168Z,999.03
2018-01-20T10:10:07.222Z,999.03
2018-01-20T10:11:04.290Z,999.05
2018-01-20T10:12:13.226Z,998.94
2018-01-20T10:13:04.253Z,998.99
2018-01-20T10:14:04.110Z,998.91
2018-01-20T10:15:04.180Z,998.95
2018-01-20T10:16:04.126Z,998.92
2018-01-20T10:17:04.146Z,998.88
2018-01-20T10:18:04.140Z,998.86
2018-01-20T10:19:04.259Z,998.83
2018-01-20T10:20:04.277Z,998.78
2018-01-20T10:21:04.163Z,998.81
2018-01-20T10:22:04.158Z,998.78
2018-01-20T10:23:04.221Z,998.73
2018-01-20T10:24:04.318Z,998.73
2018-01-20T10:25:04.146Z,998.72
2018-01-20T10:26:04.164Z,998.71
2018-01-20T10:27:04.182Z,998.64
2018-01-20T10:28:04.164Z,998.6
2018-01-20T10:29:04.231Z,998.58
2018-01-20T10:30:04.134Z,998.52
2018-01-20T10:31:04.218Z,998.51
2018-01-20T10:32:04.203Z,998.54
2018-01-20T10:33:04.350Z,998.49
2018-01-20T10:34:04.340Z,998.52
2018-01-20T10:35:04.289Z,998.49
2018-01-20T10:36:04.181Z,998.44
2018-01-20T10:37:04.315Z,998.43
2018-01-20T10:38:05.699Z,998.45
2018-01-20T10:39:05.071Z,998.4
2018-01-20T10:40:04.284Z,998.37
2018-01-20T10:41:04.208Z,998.34
2018-01-20T10:42:04.323Z,998.31
2018-01-20T10:43:04.252Z,998.28
2018-01-20T10:44:04.243Z,998.29
2018-01-20T10:45:04.216Z,998.28
2018-01-20T10:46:04.402Z,998.23
2018-01-20T10:47:04.253Z,998.19
2018-01-20T10:48:04.242Z,998.18
2018-01-20T10:49:04.296Z,998.15
2018-01-20T10:50:04.256Z,998.13
2018-01-20T10:51:04.259Z,998.16
2018-01-20T10:52:04.304Z,998.11
2018-01-20T10:53:04.245Z,998.05
2018-01-20T10:54:04.226Z,998.04
2018-01-20T10:55:04.383Z,998
2018-01-20T10:56:04.308Z,997.96
2018-01-20T10:57:04.471Z,997.96
2018-01-20T10:58:04.372Z,997.92
2018-01-20T10:59:04.244Z,997.91
2018-01-20T11:00:04.712Z,997.89
2018-01-20T11:01:04.397Z,997.86
2018-01-20T11:02:04.262Z,997.83
2018-01-20T11:03:04.404Z,997.81
2018-01-20T11:04:04.356Z,997.8
2018-01-20T11:05:04.554Z,997.73
2018-01-20T11:06:04.168Z,997.74
2018-01-20T11:07:04.222Z,997.66
2018-01-20T11:08:04.292Z,997.64
2018-01-20T11:09:04.398Z,997.58
2018-01-20T11:10:04.303Z,997.56
2018-01-20T11:11:04.345Z,997.52
2018-01-20T11:12:04.297Z,997.53
2018-01-20T11:13:04.329Z,997.48
2018-01-20T11:14:04.310Z,997.47
2018-01-20T11:15:04.374Z,997.47
2018-01-20T11:16:04.538Z,997.37
2018-01-20T11:17:04.336Z,997.35
2018-01-20T11:18:04.317Z,997.32
2018-01-20T11:19:04.253Z,997.34
2018-01-20T11:20:04.258Z,997.29
2018-01-20T11:21:04.374Z,997.24
2018-01-20T11:22:04.280Z,997.24
2018-01-20T11:23:04.286Z,997.23
2018-01-20T11:24:04.403Z,997.26
2018-01-20T11:25:04.231Z,997.21
2018-01-20T11:26:04.269Z,997.18
2018-01-20T11:27:04.313Z,997.11
2018-01-20T11:28:04.305Z,997.07